sensor_id;sensor_type;location;lat;lon;timestamp;P1;durP1;ratioP1;P2;durP2;ratioP2
42632;SDS011;28261;53.304;-6.284;2023-05-10T00:00:49;4.35;;;1.13;;
42632;SDS011;28261;53.304;-6.284;2023-05-10T00:02:54;9.80;;;1.23;;
42632;SDS011;28261;53.304;-6.284;2023-05-10T00:04:57;4.53;;;1.30;;
42632;SDS011;28261;53.304;-6.284;2023-05-10T00:07:01;7.28;;;1.70;;
42632;SDS011;28261;53.304;-6.284;2023-05-10T00:09:05;6.40;;;1.27;;
42632;SDS011;28261;53.304;-6.284;2023-05-10T00:11:09;5.22;;;1.33;;
42632;SDS011;28261;53.304;-6.284;2023-05-10T00:13:13;4.50;;;1.63;;
42632;SDS011;28261;53.304;-6.284;2023-05-10T00:15:17;3.58;;;1.08;;
42632;SDS011;28261;53.304;-6.284;2023-05-10T00:17:22;6.25;;;1.38;;
42632;SDS011;28261;53.304;-6.284;2023-05-10T00:19:27;8.70;;;1.50;;
42632;SDS011;28261;53.304;-6.284;2023-05-10T00:21:31;5.03;;;1.23;;
42632;SDS011;28261;53.304;-6.284;2023-05-10T00:23:36;4.57;;;1.35;;
42632;SDS011;28261;53.304;-6.284;2023-05-10T00:25:40;3.90;;;1.45;;
42632;SDS011;28261;53.304;-6.284;2023-05-10T00:27:45;6.80;;;1.25;;
42632;SDS011;28261;53.304;-6.284;2023-05-10T00:29:48;7.25;;;1.70;;
42632;SDS011;28261;53.304;-6.284;2023-05-10T00:31:52;9.02;;;1.48;;
42632;SDS011;28261;53.304;-6.284;2023-05-10T00:33:58;4.10;;;1.13;;
42632;SDS011;28261;53.304;-6.284;2023-05-10T00:36:01;4.47;;;1.42;;
42632;SDS011;28261;53.304;-6.284;2023-05-10T00:38:05;3.90;;;1.63;;
42632;SDS011;28261;53.304;-6.284;2023-05-10T00:40:09;3.28;;;1.27;;
42632;SDS011;28261;53.304;-6.284;2023-05-10T00:42:16;6.20;;;1.63;;
42632;SDS011;28261;53.304;-6.284;2023-05-10T00:44:20;6.15;;;1.42;;
42632;SDS011;28261;53.304;-6.284;2023-05-10T00:46:24;5.45;;;1.10;;
42632;SDS011;28261;53.304;-6.284;2023-05-10T00:48:32;6.53;;;1.40;;
42632;SDS011;28261;53.304;-6.284;2023-05-10T00:52:42;7.00;;;2.17;;
42632;SDS011;28261;53.304;-6.284;2023-05-10T00:54:46;3.60;;;1.35;;
42632;SDS011;28261;53.304;-6.284;2023-05-10T00:56:50;5.78;;;1.33;;
42632;SDS011;28261;53.304;-6.284;2023-05-10T00:58:54;6.57;;;1.48;;
42632;SDS011;28261;53.304;-6.284;2023-05-10T01:00:58;5.97;;;1.05;;
42632;SDS011;28261;53.304;-6.284;2023-05-10T01:03:03;6.15;;;1.23;;
42632;SDS011;28261;53.304;-6.284;2023-05-10T01:05:07;5.45;;;1.42;;
42632;SDS011;28261;53.304;-6.284;2023-05-10T01:07:12;5.00;;;1.23;;
42632;SDS011;28261;53.304;-6.284;2023-05-10T01:11:19;6.50;;;1.10;;
42632;SDS011;28261;53.304;-6.284;2023-05-10T01:13:27;4.90;;;0.98;;
42632;SDS011;28261;53.304;-6.284;2023-05-10T01:15:35;5.15;;;0.95;;
42632;SDS011;28261;53.304;-6.284;2023-05-10T01:17:40;2.97;;;1.17;;
42632;SDS011;28261;53.304;-6.284;2023-05-10T01:19:47;4.97;;;0.93;;
42632;SDS011;28261;53.304;-6.284;2023-05-10T01:21:53;2.85;;;1.02;;
42632;SDS011;28261;53.304;-6.284;2023-05-10T01:24:20;3.72;;;0.93;;
42632;SDS011;28261;53.304;-6.284;2023-05-10T01:26:52;6.45;;;1.38;;
42632;SDS011;28261;53.304;-6.284;2023-05-10T01:29:27;3.28;;;1.55;;
42632;SDS011;28261;53.304;-6.284;2023-05-10T01:32:14;4.28;;;1.00;;
42632;SDS011;28261;53.304;-6.284;2023-05-10T01:34:25;2.95;;;0.70;;
42632;SDS011;28261;53.304;-6.284;2023-05-10T01:36:37;1.35;;;1.00;;
42632;SDS011;28261;53.304;-6.284;2023-05-10T01:38:47;4.95;;;0.70;;
42632;SDS011;28261;53.304;-6.284;2023-05-10T01:40:56;3.55;;;0.82;;
42632;SDS011;28261;53.304;-6.284;2023-05-10T01:43:11;2.33;;;0.70;;
42632;SDS011;28261;53.304;-6.284;2023-05-10T01:45:24;5.50;;;1.00;;
42632;SDS011;28261;53.304;-6.284;2023-05-10T01:47:34;5.00;;;1.20;;
42632;SDS011;28261;53.304;-6.284;2023-05-10T01:49:41;4.65;;;0.95;;
42632;SDS011;28261;53.304;-6.284;2023-05-10T01:51:50;3.53;;;0.95;;
42632;SDS011;28261;53.304;-6.284;2023-05-10T01:53:57;3.78;;;0.85;;
42632;SDS011;28261;53.304;-6.284;2023-05-10T01:56:04;3.90;;;1.05;;
42632;SDS011;28261;53.304;-6.284;2023-05-10T01:58:11;5.38;;;1.05;;
42632;SDS011;28261;53.304;-6.284;2023-05-10T02:00:18;3.25;;;0.70;;
42632;SDS011;28261;53.304;-6.284;2023-05-10T02:02:25;3.40;;;0.93;;
42632;SDS011;28261;53.304;-6.284;2023-05-10T02:04:32;5.43;;;1.13;;
42632;SDS011;28261;53.304;-6.284;2023-05-10T02:06:40;3.47;;;0.90;;
42632;SDS011;28261;53.304;-6.284;2023-05-10T02:08:45;4.30;;;0.95;;
42632;SDS011;28261;53.304;-6.284;2023-05-10T02:10:53;5.88;;;1.25;;
42632;SDS011;28261;53.304;-6.284;2023-05-10T02:12:59;2.95;;;1.02;;
42632;SDS011;28261;53.304;-6.284;2023-05-10T02:17:09;6.03;;;1.90;;
42632;SDS011;28261;53.304;-6.284;2023-05-10T02:19:14;3.22;;;1.27;;
42632;SDS011;28261;53.304;-6.284;2023-05-10T02:21:20;2.90;;;1.30;;
42632;SDS011;28261;53.304;-6.284;2023-05-10T02:23:25;2.63;;;1.20;;
42632;SDS011;28261;53.304;-6.284;2023-05-10T02:25:30;3.72;;;1.02;;
42632;SDS011;28261;53.304;-6.284;2023-05-10T02:27:35;5.85;;;1.00;;
42632;SDS011;28261;53.304;-6.284;2023-05-10T02:29:41;6.10;;;1.13;;
42632;SDS011;28261;53.304;-6.284;2023-05-10T02:31:46;3.15;;;1.08;;
42632;SDS011;28261;53.304;-6.284;2023-05-10T02:33:50;6.38;;;1.05;;
42632;SDS011;28261;53.304;-6.284;2023-05-10T02:35:54;3.97;;;1.00;;
42632;SDS011;28261;53.304;-6.284;2023-05-10T02:38:00;6.78;;;1.00;;
42632;SDS011;28261;53.304;-6.284;2023-05-10T02:40:05;3.70;;;1.20;;
42632;SDS011;28261;53.304;-6.284;2023-05-10T02:42:10;3.88;;;0.80;;
42632;SDS011;28261;53.304;-6.284;2023-05-10T02:44:17;2.67;;;0.98;;
42632;SDS011;28261;53.304;-6.284;2023-05-10T02:46:21;5.30;;;1.40;;
42632;SDS011;28261;53.304;-6.284;2023-05-10T02:48:26;2.50;;;1.00;;
42632;SDS011;28261;53.304;-6.284;2023-05-10T02:50:30;3.05;;;0.70;;
42632;SDS011;28261;53.304;-6.284;2023-05-10T02:52:39;4.13;;;1.20;;
42632;SDS011;28261;53.304;-6.284;2023-05-10T02:54:49;4.93;;;1.15;;
42632;SDS011;28261;53.304;-6.284;2023-05-10T02:56:56;6.03;;;1.00;;
42632;SDS011;28261;53.304;-6.284;2023-05-10T02:59:01;7.72;;;1.40;;
42632;SDS011;28261;53.304;-6.284;2023-05-10T03:01:04;4.95;;;1.27;;
42632;SDS011;28261;53.304;-6.284;2023-05-10T03:05:12;5.20;;;0.82;;
42632;SDS011;28261;53.304;-6.284;2023-05-10T03:07:16;8.75;;;0.90;;
42632;SDS011;28261;53.304;-6.284;2023-05-10T03:09:23;4.60;;;1.20;;
42632;SDS011;28261;53.304;-6.284;2023-05-10T03:11:32;2.22;;;0.93;;
42632;SDS011;28261;53.304;-6.284;2023-05-10T03:13:48;4.38;;;1.33;;
42632;SDS011;28261;53.304;-6.284;2023-05-10T03:16:01;9.70;;;1.30;;
42632;SDS011;28261;53.304;-6.284;2023-05-10T03:18:12;7.28;;;1.20;;
42632;SDS011;28261;53.304;-6.284;2023-05-10T03:20:22;4.95;;;1.25;;
42632;SDS011;28261;53.304;-6.284;2023-05-10T03:22:29;4.45;;;1.20;;
42632;SDS011;28261;53.304;-6.284;2023-05-10T03:24:35;7.03;;;0.85;;
42632;SDS011;28261;53.304;-6.284;2023-05-10T03:26:42;3.70;;;0.98;;
42632;SDS011;28261;53.304;-6.284;2023-05-10T03:28:51;2.90;;;0.63;;
42632;SDS011;28261;53.304;-6.284;2023-05-10T03:30:56;4.20;;;0.95;;
42632;SDS011;28261;53.304;-6.284;2023-05-10T03:33:03;2.45;;;1.10;;
42632;SDS011;28261;53.304;-6.284;2023-05-10T03:35:11;4.30;;;0.85;;
42632;SDS011;28261;53.304;-6.284;2023-05-10T03:37:16;3.85;;;0.50;;
42632;SDS011;28261;53.304;-6.284;2023-05-10T03:39:19;2.47;;;1.00;;
42632;SDS011;28261;53.304;-6.284;2023-05-10T03:41:28;2.30;;;0.60;;
42632;SDS011;28261;53.304;-6.284;2023-05-10T03:43:33;2.78;;;0.73;;
42632;SDS011;28261;53.304;-6.284;2023-05-10T03:45:37;2.30;;;0.85;;
42632;SDS011;28261;53.304;-6.284;2023-05-10T03:47:40;3.67;;;1.00;;
42632;SDS011;28261;53.304;-6.284;2023-05-10T03:49:44;2.50;;;1.08;;
42632;SDS011;28261;53.304;-6.284;2023-05-10T03:51:47;5.90;;;1.00;;
42632;SDS011;28261;53.304;-6.284;2023-05-10T03:53:51;11.00;;;1.20;;
42632;SDS011;28261;53.304;-6.284;2023-05-10T03:55:54;6.90;;;1.30;;
42632;SDS011;28261;53.304;-6.284;2023-05-10T03:57:58;7.07;;;1.20;;
42632;SDS011;28261;53.304;-6.284;2023-05-10T04:00:03;4.18;;;0.98;;
42632;SDS011;28261;53.304;-6.284;2023-05-10T04:02:14;5.25;;;1.02;;
42632;SDS011;28261;53.304;-6.284;2023-05-10T04:04:18;4.43;;;1.08;;
42632;SDS011;28261;53.304;-6.284;2023-05-10T04:06:24;7.55;;;1.15;;
42632;SDS011;28261;53.304;-6.284;2023-05-10T04:08:28;5.40;;;0.98;;
42632;SDS011;28261;53.304;-6.284;2023-05-10T04:10:32;4.80;;;0.80;;
42632;SDS011;28261;53.304;-6.284;2023-05-10T04:12:36;4.78;;;1.15;;
42632;SDS011;28261;53.304;-6.284;2023-05-10T04:14:39;3.50;;;0.85;;
42632;SDS011;28261;53.304;-6.284;2023-05-10T04:16:44;4.82;;;0.70;;
42632;SDS011;28261;53.304;-6.284;2023-05-10T04:18:48;3.30;;;1.13;;
42632;SDS011;28261;53.304;-6.284;2023-05-10T04:20:52;4.05;;;1.10;;
42632;SDS011;28261;53.304;-6.284;2023-05-10T04:22:55;3.08;;;0.93;;
42632;SDS011;28261;53.304;-6.284;2023-05-10T04:24:58;3.05;;;0.85;;
42632;SDS011;28261;53.304;-6.284;2023-05-10T04:27:02;4.57;;;1.20;;
42632;SDS011;28261;53.304;-6.284;2023-05-10T04:29:06;4.53;;;1.08;;
42632;SDS011;28261;53.304;-6.284;2023-05-10T04:31:09;4.55;;;1.00;;
42632;SDS011;28261;53.304;-6.284;2023-05-10T04:33:14;3.97;;;0.80;;
42632;SDS011;28261;53.304;-6.284;2023-05-10T04:35:17;2.95;;;1.30;;
42632;SDS011;28261;53.304;-6.284;2023-05-10T04:37:21;6.10;;;0.77;;
42632;SDS011;28261;53.304;-6.284;2023-05-10T04:39:24;5.07;;;0.93;;
42632;SDS011;28261;53.304;-6.284;2023-05-10T04:41:29;2.42;;;0.90;;
42632;SDS011;28261;53.304;-6.284;2023-05-10T04:43:33;2.75;;;0.50;;
42632;SDS011;28261;53.304;-6.284;2023-05-10T04:47:41;2.30;;;0.57;;
42632;SDS011;28261;53.304;-6.284;2023-05-10T04:49:46;3.53;;;0.70;;
42632;SDS011;28261;53.304;-6.284;2023-05-10T04:51:49;2.40;;;0.60;;
42632;SDS011;28261;53.304;-6.284;2023-05-10T04:53:53;3.85;;;1.10;;
42632;SDS011;28261;53.304;-6.284;2023-05-10T04:56:06;2.65;;;0.75;;
42632;SDS011;28261;53.304;-6.284;2023-05-10T04:58:09;2.53;;;1.00;;
42632;SDS011;28261;53.304;-6.284;2023-05-10T05:00:13;1.20;;;0.88;;
42632;SDS011;28261;53.304;-6.284;2023-05-10T05:02:17;4.05;;;0.95;;
42632;SDS011;28261;53.304;-6.284;2023-05-10T05:04:21;3.75;;;0.70;;
42632;SDS011;28261;53.304;-6.284;2023-05-10T05:06:27;4.65;;;0.73;;
42632;SDS011;28261;53.304;-6.284;2023-05-10T05:08:30;6.45;;;0.82;;
42632;SDS011;28261;53.304;-6.284;2023-05-10T05:10:33;3.72;;;0.88;;
42632;SDS011;28261;53.304;-6.284;2023-05-10T05:12:37;4.47;;;0.80;;
42632;SDS011;28261;53.304;-6.284;2023-05-10T05:14:40;3.28;;;0.73;;
42632;SDS011;28261;53.304;-6.284;2023-05-10T05:16:43;6.53;;;0.82;;
42632;SDS011;28261;53.304;-6.284;2023-05-10T05:18:47;6.38;;;0.77;;
42632;SDS011;28261;53.304;-6.284;2023-05-10T05:20:50;4.90;;;0.82;;
42632;SDS011;28261;53.304;-6.284;2023-05-10T05:22:55;6.07;;;0.95;;
42632;SDS011;28261;53.304;-6.284;2023-05-10T05:24:58;1.20;;;0.70;;
42632;SDS011;28261;53.304;-6.284;2023-05-10T05:27:02;3.88;;;1.38;;
42632;SDS011;28261;53.304;-6.284;2023-05-10T05:29:05;3.63;;;0.80;;
42632;SDS011;28261;53.304;-6.284;2023-05-10T05:31:08;3.10;;;0.90;;
42632;SDS011;28261;53.304;-6.284;2023-05-10T05:33:12;4.15;;;0.77;;
42632;SDS011;28261;53.304;-6.284;2023-05-10T05:35:16;1.58;;;0.63;;
42632;SDS011;28261;53.304;-6.284;2023-05-10T05:37:20;3.35;;;1.05;;
42632;SDS011;28261;53.304;-6.284;2023-05-10T05:39:25;2.92;;;0.85;;
42632;SDS011;28261;53.304;-6.284;2023-05-10T05:41:28;4.00;;;0.98;;
42632;SDS011;28261;53.304;-6.284;2023-05-10T05:43:32;4.05;;;1.00;;
42632;SDS011;28261;53.304;-6.284;2023-05-10T05:45:38;2.05;;;0.60;;
42632;SDS011;28261;53.304;-6.284;2023-05-10T05:47:42;3.35;;;0.60;;
42632;SDS011;28261;53.304;-6.284;2023-05-10T05:49:45;2.30;;;0.45;;
42632;SDS011;28261;53.304;-6.284;2023-05-10T05:51:48;2.75;;;0.60;;
42632;SDS011;28261;53.304;-6.284;2023-05-10T05:53:52;2.90;;;0.47;;
42632;SDS011;28261;53.304;-6.284;2023-05-10T05:55:57;4.57;;;0.60;;
42632;SDS011;28261;53.304;-6.284;2023-05-10T05:58:01;1.40;;;0.40;;
42632;SDS011;28261;53.304;-6.284;2023-05-10T06:00:05;2.58;;;0.40;;
42632;SDS011;28261;53.304;-6.284;2023-05-10T06:02:15;1.35;;;0.60;;
42632;SDS011;28261;53.304;-6.284;2023-05-10T06:04:19;4.32;;;0.65;;
42632;SDS011;28261;53.304;-6.284;2023-05-10T06:06:22;2.30;;;0.73;;
42632;SDS011;28261;53.304;-6.284;2023-05-10T06:08:26;2.10;;;0.85;;
42632;SDS011;28261;53.304;-6.284;2023-05-10T06:10:29;3.72;;;0.70;;
42632;SDS011;28261;53.304;-6.284;2023-05-10T06:12:34;4.75;;;0.90;;
42632;SDS011;28261;53.304;-6.284;2023-05-10T06:16:41;2.40;;;0.60;;
42632;SDS011;28261;53.304;-6.284;2023-05-10T06:18:44;1.13;;;0.60;;
42632;SDS011;28261;53.304;-6.284;2023-05-10T06:20:47;2.33;;;0.68;;
42632;SDS011;28261;53.304;-6.284;2023-05-10T06:22:53;3.53;;;0.90;;
42632;SDS011;28261;53.304;-6.284;2023-05-10T06:24:56;5.30;;;0.70;;
42632;SDS011;28261;53.304;-6.284;2023-05-10T06:27:00;0.70;;;0.47;;
42632;SDS011;28261;53.304;-6.284;2023-05-10T06:29:05;3.30;;;0.47;;
42632;SDS011;28261;53.304;-6.284;2023-05-10T06:31:08;3.97;;;0.50;;
42632;SDS011;28261;53.304;-6.284;2023-05-10T06:33:13;2.88;;;0.82;;
42632;SDS011;28261;53.304;-6.284;2023-05-10T06:35:17;3.83;;;0.95;;
42632;SDS011;28261;53.304;-6.284;2023-05-10T06:37:21;2.28;;;0.57;;
42632;SDS011;28261;53.304;-6.284;2023-05-10T06:39:24;2.88;;;0.73;;
42632;SDS011;28261;53.304;-6.284;2023-05-10T06:41:27;2.38;;;0.60;;
42632;SDS011;28261;53.304;-6.284;2023-05-10T06:43:31;1.92;;;0.93;;
42632;SDS011;28261;53.304;-6.284;2023-05-10T06:45:36;2.03;;;0.70;;
42632;SDS011;28261;53.304;-6.284;2023-05-10T06:47:39;3.00;;;0.38;;
42632;SDS011;28261;53.304;-6.284;2023-05-10T06:49:44;2.72;;;0.75;;
42632;SDS011;28261;53.304;-6.284;2023-05-10T06:51:48;2.95;;;0.55;;
42632;SDS011;28261;53.304;-6.284;2023-05-10T06:53:52;2.90;;;0.43;;
42632;SDS011;28261;53.304;-6.284;2023-05-10T06:55:56;2.90;;;0.85;;
42632;SDS011;28261;53.304;-6.284;2023-05-10T06:58:00;3.97;;;0.60;;
42632;SDS011;28261;53.304;-6.284;2023-05-10T07:00:08;2.50;;;0.75;;
42632;SDS011;28261;53.304;-6.284;2023-05-10T07:02:15;2.60;;;0.40;;
42632;SDS011;28261;53.304;-6.284;2023-05-10T07:04:19;5.18;;;0.50;;
42632;SDS011;28261;53.304;-6.284;2023-05-10T07:06:24;2.00;;;0.65;;
42632;SDS011;28261;53.304;-6.284;2023-05-10T07:08:34;9.02;;;1.05;;
42632;SDS011;28261;53.304;-6.284;2023-05-10T07:10:39;4.32;;;0.70;;
42632;SDS011;28261;53.304;-6.284;2023-05-10T07:12:46;2.30;;;0.65;;
42632;SDS011;28261;53.304;-6.284;2023-05-10T07:14:52;3.63;;;0.70;;
42632;SDS011;28261;53.304;-6.284;2023-05-10T07:16:57;2.05;;;0.55;;
42632;SDS011;28261;53.304;-6.284;2023-05-10T07:19:03;0.95;;;0.52;;
42632;SDS011;28261;53.304;-6.284;2023-05-10T07:21:08;1.70;;;0.63;;
42632;SDS011;28261;53.304;-6.284;2023-05-10T07:23:12;2.38;;;0.60;;
42632;SDS011;28261;53.304;-6.284;2023-05-10T07:25:17;1.55;;;0.70;;
42632;SDS011;28261;53.304;-6.284;2023-05-10T07:27:24;0.68;;;0.30;;
42632;SDS011;28261;53.304;-6.284;2023-05-10T07:29:29;1.58;;;0.55;;
42632;SDS011;28261;53.304;-6.284;2023-05-10T07:31:33;1.35;;;0.47;;
42632;SDS011;28261;53.304;-6.284;2023-05-10T07:33:37;1.27;;;0.30;;
42632;SDS011;28261;53.304;-6.284;2023-05-10T07:35:42;0.47;;;0.28;;
42632;SDS011;28261;53.304;-6.284;2023-05-10T07:37:46;0.55;;;0.43;;
42632;SDS011;28261;53.304;-6.284;2023-05-10T07:39:50;0.75;;;0.22;;
42632;SDS011;28261;53.304;-6.284;2023-05-10T07:41:54;1.48;;;0.32;;
42632;SDS011;28261;53.304;-6.284;2023-05-10T07:43:58;1.75;;;0.55;;
42632;SDS011;28261;53.304;-6.284;2023-05-10T07:46:01;2.88;;;0.52;;
42632;SDS011;28261;53.304;-6.284;2023-05-10T07:48:05;1.80;;;0.47;;
42632;SDS011;28261;53.304;-6.284;2023-05-10T07:50:09;2.25;;;0.45;;
42632;SDS011;28261;53.304;-6.284;2023-05-10T07:52:14;2.47;;;0.40;;
42632;SDS011;28261;53.304;-6.284;2023-05-10T07:54:18;6.25;;;0.57;;
42632;SDS011;28261;53.304;-6.284;2023-05-10T07:56:23;4.07;;;0.60;;
42632;SDS011;28261;53.304;-6.284;2023-05-10T07:58:29;2.75;;;0.77;;
42632;SDS011;28261;53.304;-6.284;2023-05-10T08:00:32;2.85;;;0.55;;
42632;SDS011;28261;53.304;-6.284;2023-05-10T08:02:36;5.65;;;0.50;;
42632;SDS011;28261;53.304;-6.284;2023-05-10T08:04:40;4.28;;;0.77;;
42632;SDS011;28261;53.304;-6.284;2023-05-10T08:06:44;1.02;;;0.30;;
42632;SDS011;28261;53.304;-6.284;2023-05-10T08:08:49;2.35;;;0.43;;
42632;SDS011;28261;53.304;-6.284;2023-05-10T08:10:55;1.98;;;0.63;;
42632;SDS011;28261;53.304;-6.284;2023-05-10T08:12:58;2.05;;;0.35;;
42632;SDS011;28261;53.304;-6.284;2023-05-10T08:15:02;3.35;;;0.50;;
42632;SDS011;28261;53.304;-6.284;2023-05-10T08:17:06;4.03;;;0.45;;
42632;SDS011;28261;53.304;-6.284;2023-05-10T08:19:10;3.25;;;0.50;;
42632;SDS011;28261;53.304;-6.284;2023-05-10T08:21:14;1.20;;;0.47;;
42632;SDS011;28261;53.304;-6.284;2023-05-10T08:23:18;6.63;;;0.75;;
42632;SDS011;28261;53.304;-6.284;2023-05-10T08:25:23;1.02;;;0.60;;
42632;SDS011;28261;53.304;-6.284;2023-05-10T08:27:27;1.13;;;0.52;;
42632;SDS011;28261;53.304;-6.284;2023-05-10T08:29:31;1.25;;;0.22;;
42632;SDS011;28261;53.304;-6.284;2023-05-10T08:31:50;1.40;;;0.45;;
42632;SDS011;28261;53.304;-6.284;2023-05-10T08:33:54;3.88;;;0.40;;
42632;SDS011;28261;53.304;-6.284;2023-05-10T08:35:57;2.40;;;0.60;;
42632;SDS011;28261;53.304;-6.284;2023-05-10T08:38:01;1.67;;;0.47;;
42632;SDS011;28261;53.304;-6.284;2023-05-10T08:40:05;3.13;;;0.77;;
42632;SDS011;28261;53.304;-6.284;2023-05-10T08:42:14;1.80;;;0.50;;
42632;SDS011;28261;53.304;-6.284;2023-05-10T08:44:22;2.00;;;0.52;;
42632;SDS011;28261;53.304;-6.284;2023-05-10T08:48:32;1.48;;;0.55;;
42632;SDS011;28261;53.304;-6.284;2023-05-10T08:50:38;2.83;;;0.57;;
42632;SDS011;28261;53.304;-6.284;2023-05-10T08:52:42;2.15;;;0.65;;
42632;SDS011;28261;53.304;-6.284;2023-05-10T08:54:50;2.72;;;0.90;;
42632;SDS011;28261;53.304;-6.284;2023-05-10T08:56:53;1.13;;;0.40;;
42632;SDS011;28261;53.304;-6.284;2023-05-10T08:58:59;0.30;;;0.30;;
42632;SDS011;28261;53.304;-6.284;2023-05-10T09:01:03;2.65;;;0.40;;
42632;SDS011;28261;53.304;-6.284;2023-05-10T09:05:12;2.42;;;0.50;;
42632;SDS011;28261;53.304;-6.284;2023-05-10T09:07:18;1.00;;;0.70;;
42632;SDS011;28261;53.304;-6.284;2023-05-10T09:09:22;2.83;;;0.50;;
42632;SDS011;28261;53.304;-6.284;2023-05-10T09:11:28;1.75;;;0.70;;
42632;SDS011;28261;53.304;-6.284;2023-05-10T09:13:32;2.92;;;0.45;;
42632;SDS011;28261;53.304;-6.284;2023-05-10T09:15:37;1.45;;;0.68;;
42632;SDS011;28261;53.304;-6.284;2023-05-10T09:17:41;0.60;;;0.32;;
42632;SDS011;28261;53.304;-6.284;2023-05-10T09:19:46;0.85;;;0.40;;
42632;SDS011;28261;53.304;-6.284;2023-05-10T09:21:50;2.78;;;0.52;;
42632;SDS011;28261;53.304;-6.284;2023-05-10T09:23:54;0.93;;;0.43;;
42632;SDS011;28261;53.304;-6.284;2023-05-10T09:26:04;1.77;;;0.98;;
42632;SDS011;28261;53.304;-6.284;2023-05-10T09:28:08;1.00;;;0.32;;
42632;SDS011;28261;53.304;-6.284;2023-05-10T09:30:15;1.38;;;0.40;;
42632;SDS011;28261;53.304;-6.284;2023-05-10T09:32:21;1.88;;;0.47;;
42632;SDS011;28261;53.304;-6.284;2023-05-10T09:34:38;3.45;;;0.63;;
42632;SDS011;28261;53.304;-6.284;2023-05-10T09:36:53;2.08;;;0.57;;
42632;SDS011;28261;53.304;-6.284;2023-05-10T09:38:59;1.17;;;0.40;;
42632;SDS011;28261;53.304;-6.284;2023-05-10T09:41:03;0.60;;;0.55;;
42632;SDS011;28261;53.304;-6.284;2023-05-10T09:43:07;1.83;;;0.50;;
42632;SDS011;28261;53.304;-6.284;2023-05-10T09:45:12;1.33;;;0.30;;
42632;SDS011;28261;53.304;-6.284;2023-05-10T09:47:16;1.48;;;0.32;;
42632;SDS011;28261;53.304;-6.284;2023-05-10T09:49:22;1.15;;;0.30;;
42632;SDS011;28261;53.304;-6.284;2023-05-10T09:51:25;1.15;;;0.47;;
42632;SDS011;28261;53.304;-6.284;2023-05-10T09:53:29;3.22;;;0.45;;
42632;SDS011;28261;53.304;-6.284;2023-05-10T09:55:40;0.90;;;0.45;;
42632;SDS011;28261;53.304;-6.284;2023-05-10T09:57:46;1.05;;;0.40;;
42632;SDS011;28261;53.304;-6.284;2023-05-10T09:59:50;1.85;;;0.63;;
42632;SDS011;28261;53.304;-6.284;2023-05-10T10:01:56;3.08;;;0.63;;
42632;SDS011;28261;53.304;-6.284;2023-05-10T10:04:02;1.77;;;0.60;;
42632;SDS011;28261;53.304;-6.284;2023-05-10T10:06:08;2.72;;;1.52;;
42632;SDS011;28261;53.304;-6.284;2023-05-10T10:10:35;3.55;;;0.65;;
42632;SDS011;28261;53.304;-6.284;2023-05-10T10:12:40;0.55;;;0.30;;
42632;SDS011;28261;53.304;-6.284;2023-05-10T10:14:45;1.70;;;0.55;;
42632;SDS011;28261;53.304;-6.284;2023-05-10T10:16:49;0.95;;;0.50;;
42632;SDS011;28261;53.304;-6.284;2023-05-10T10:19:09;2.30;;;0.80;;
42632;SDS011;28261;53.304;-6.284;2023-05-10T10:21:15;0.60;;;0.30;;
42632;SDS011;28261;53.304;-6.284;2023-05-10T10:23:19;1.25;;;0.32;;
42632;SDS011;28261;53.304;-6.284;2023-05-10T10:25:23;2.92;;;0.50;;
42632;SDS011;28261;53.304;-6.284;2023-05-10T10:29:39;1.85;;;0.77;;
42632;SDS011;28261;53.304;-6.284;2023-05-10T10:31:52;1.38;;;0.70;;
42632;SDS011;28261;53.304;-6.284;2023-05-10T10:34:05;2.03;;;0.43;;
42632;SDS011;28261;53.304;-6.284;2023-05-10T10:36:11;1.40;;;0.50;;
42632;SDS011;28261;53.304;-6.284;2023-05-10T10:38:17;2.50;;;0.60;;
42632;SDS011;28261;53.304;-6.284;2023-05-10T10:40:30;2.42;;;0.50;;
42632;SDS011;28261;53.304;-6.284;2023-05-10T10:42:44;2.60;;;0.50;;
42632;SDS011;28261;53.304;-6.284;2023-05-10T10:44:48;2.40;;;0.40;;
42632;SDS011;28261;53.304;-6.284;2023-05-10T10:46:58;2.88;;;0.50;;
42632;SDS011;28261;53.304;-6.284;2023-05-10T10:49:08;2.05;;;0.40;;
42632;SDS011;28261;53.304;-6.284;2023-05-10T10:51:13;0.40;;;0.30;;
42632;SDS011;28261;53.304;-6.284;2023-05-10T10:53:18;1.25;;;0.45;;
42632;SDS011;28261;53.304;-6.284;2023-05-10T10:55:21;1.63;;;0.85;;
42632;SDS011;28261;53.304;-6.284;2023-05-10T10:57:30;0.95;;;0.20;;
42632;SDS011;28261;53.304;-6.284;2023-05-10T10:59:35;0.52;;;0.50;;
42632;SDS011;28261;53.304;-6.284;2023-05-10T11:01:39;0.70;;;0.40;;
42632;SDS011;28261;53.304;-6.284;2023-05-10T11:06:28;1.15;;;0.40;;
42632;SDS011;28261;53.304;-6.284;2023-05-10T11:08:41;2.25;;;0.40;;
42632;SDS011;28261;53.304;-6.284;2023-05-10T11:10:49;1.42;;;0.52;;
42632;SDS011;28261;53.304;-6.284;2023-05-10T11:13:08;1.67;;;0.70;;
42632;SDS011;28261;53.304;-6.284;2023-05-10T11:15:13;2.35;;;0.40;;
42632;SDS011;28261;53.304;-6.284;2023-05-10T11:17:23;3.13;;;0.40;;
42632;SDS011;28261;53.304;-6.284;2023-05-10T11:19:27;0.50;;;0.50;;
42632;SDS011;28261;53.304;-6.284;2023-05-10T11:21:31;0.85;;;0.40;;
42632;SDS011;28261;53.304;-6.284;2023-05-10T11:23:48;6.03;;;0.55;;
42632;SDS011;28261;53.304;-6.284;2023-05-10T11:25:53;2.30;;;0.50;;
42632;SDS011;28261;53.304;-6.284;2023-05-10T11:30:05;1.85;;;0.47;;
42632;SDS011;28261;53.304;-6.284;2023-05-10T11:32:10;1.02;;;0.45;;
42632;SDS011;28261;53.304;-6.284;2023-05-10T11:36:29;0.60;;;0.50;;
42632;SDS011;28261;53.304;-6.284;2023-05-10T11:38:36;1.08;;;0.60;;
42632;SDS011;28261;53.304;-6.284;2023-05-10T11:40:41;1.90;;;0.50;;
42632;SDS011;28261;53.304;-6.284;2023-05-10T11:42:46;1.27;;;0.57;;
42632;SDS011;28261;53.304;-6.284;2023-05-10T11:44:50;1.30;;;0.52;;
42632;SDS011;28261;53.304;-6.284;2023-05-10T11:46:54;2.00;;;0.88;;
42632;SDS011;28261;53.304;-6.284;2023-05-10T11:48:58;3.33;;;0.63;;
42632;SDS011;28261;53.304;-6.284;2023-05-10T11:51:06;1.42;;;0.60;;
42632;SDS011;28261;53.304;-6.284;2023-05-10T11:53:10;0.65;;;0.40;;
42632;SDS011;28261;53.304;-6.284;2023-05-10T11:55:15;1.58;;;0.32;;
42632;SDS011;28261;53.304;-6.284;2023-05-10T11:57:21;2.40;;;0.45;;
42632;SDS011;28261;53.304;-6.284;2023-05-10T11:59:30;2.40;;;0.30;;
42632;SDS011;28261;53.304;-6.284;2023-05-10T12:01:33;0.80;;;0.52;;
42632;SDS011;28261;53.304;-6.284;2023-05-10T12:03:38;1.17;;;0.50;;
42632;SDS011;28261;53.304;-6.284;2023-05-10T12:12:16;4.13;;;1.10;;
42632;SDS011;28261;53.304;-6.284;2023-05-10T12:14:22;2.10;;;0.40;;
42632;SDS011;28261;53.304;-6.284;2023-05-10T12:16:28;1.77;;;0.50;;
42632;SDS011;28261;53.304;-6.284;2023-05-10T12:18:32;1.20;;;0.50;;
42632;SDS011;28261;53.304;-6.284;2023-05-10T12:22:41;2.10;;;0.80;;
42632;SDS011;28261;53.304;-6.284;2023-05-10T12:24:48;0.80;;;0.60;;
42632;SDS011;28261;53.304;-6.284;2023-05-10T12:26:53;1.88;;;0.63;;
42632;SDS011;28261;53.304;-6.284;2023-05-10T12:29:11;3.05;;;0.40;;
42632;SDS011;28261;53.304;-6.284;2023-05-10T12:31:17;2.65;;;0.80;;
42632;SDS011;28261;53.304;-6.284;2023-05-10T12:33:21;2.33;;;0.63;;
42632;SDS011;28261;53.304;-6.284;2023-05-10T12:35:24;1.73;;;0.65;;
42632;SDS011;28261;53.304;-6.284;2023-05-10T12:37:28;1.08;;;0.75;;
42632;SDS011;28261;53.304;-6.284;2023-05-10T12:39:39;1.60;;;0.50;;
42632;SDS011;28261;53.304;-6.284;2023-05-10T12:41:44;4.63;;;0.60;;
42632;SDS011;28261;53.304;-6.284;2023-05-10T12:43:48;1.08;;;0.68;;
42632;SDS011;28261;53.304;-6.284;2023-05-10T12:45:52;1.63;;;0.63;;
42632;SDS011;28261;53.304;-6.284;2023-05-10T12:47:58;1.38;;;0.50;;
42632;SDS011;28261;53.304;-6.284;2023-05-10T12:50:02;1.40;;;0.70;;
42632;SDS011;28261;53.304;-6.284;2023-05-10T12:52:06;2.53;;;0.52;;
42632;SDS011;28261;53.304;-6.284;2023-05-10T12:54:10;0.60;;;0.40;;
42632;SDS011;28261;53.304;-6.284;2023-05-10T12:56:13;1.90;;;0.60;;
42632;SDS011;28261;53.304;-6.284;2023-05-10T12:58:17;1.25;;;0.68;;
42632;SDS011;28261;53.304;-6.284;2023-05-10T13:00:36;0.57;;;0.30;;
42632;SDS011;28261;53.304;-6.284;2023-05-10T13:02:39;1.95;;;0.40;;